This is the latest recevied weather packets stored in our database for station/object KE9DBJ-13. If no packets are shown the sender has not sent any weather packets the latest 10 day(s).
| Time | Temp. | Humidity | Pressure | Rain* | Wind** | Luminosity | Snow |
|---|---|---|---|---|---|---|---|
| 1788472203 | 34.44° C | 57% | 1012.6 hPa | 0 mm | - | - | - |
| 1788471003 | 35° C | 58% | 1012.7 hPa | 0 mm | - | - | - |
| 1788469202 | 36.67° C | 48% | 1012.8 hPa | 0 mm | - | - | - |
| 1788467402 | 36.11° C | 49% | 1013.2 hPa | 0 mm | - | - | - |
| 1788465603 | 37.22° C | 47% | 1013.6 hPa | 0 mm | - | - | - |
| 1788465003 | 36.67° C | 47% | 1013.6 hPa | 0 mm | - | - | - |
| 1788445203 | 29.44° C | 78% | 1015.8 hPa | 0 mm | - | - | - |
| 1788443403 | 27.22° C | 85% | 1016.2 hPa | 0 mm | - | - | - |
| 1788442803 | 25.56° C | 87% | 1016.6 hPa | 0 mm | - | - | - |
| 1788442203 | 24.44° C | 90% | 1016.6 hPa | 0 mm | - | - | - |
| 1788441603 | 23.89° C | 92% | 1016.7 hPa | 0 mm | - | - | - |
| 1788434403 | 21.11° C | 93% | 1016.5 hPa | 0 mm | - | - | - |
| 1788433803 | 21.11° C | 93% | 1016.4 hPa | 0 mm | - | - | - |
| 1788433203 | 21.11° C | 93% | 1016.4 hPa | 0 mm | - | - | - |
| 1788432603 | 21.11° C | 93% | 1016.2 hPa | 0 mm | - | - | - |
| 1788432003 | 21.11° C | 93% | 1016.2 hPa | 0 mm | - | - | - |
| 1788431403 | 21.11° C | 93% | 1016.3 hPa | 0 mm | - | - | - |
| 1788430802 | 21.67° C | 93% | 1016.3 hPa | 0 mm | - | - | - |
| 1788430202 | 21.67° C | 93% | 1016.3 hPa | 0 mm | - | - | - |
| 1788429602 | 21.67° C | 92% | 1016.2 hPa | 0 mm | - | - | - |
| 1788429002 | 21.67° C | 92% | 1016.3 hPa | 0 mm | - | - | - |
| 1788428402 | 21.67° C | 92% | 1016.3 hPa | 0 mm | - | - | - |
| 1788427802 | 21.67° C | 92% | 1016.1 hPa | 0 mm | - | - | - |
| 1788427203 | 21.67° C | 92% | 1016 hPa | 0 mm | - | - | - |
| 1788426603 | 21.67° C | 92% | 1016 hPa | 0 mm | - | - | - |
* Rain latest hour (hover to see other rain measurements)
** Current wind speed in m/s (hover to see current wind gust speed)